<?xml version="1.0" encoding="UTF-8" standalone="no" ?><gpx xmlns="http://www.topografix.com/GPX/1/1" xmlns:gpxx="http://www.garmin.com/xmlschemas/GpxExtensions/v3" xmlns:wptx1="http://www.garmin.com/xmlschemas/WaypointExtension/v1" xmlns:gpxtpx="http://www.garmin.com/xmlschemas/TrackPointExtension/v1" creator="Dakota 20" version="1.1" xmlns:xsi="http://www.w3.org/2001/XMLSchema-instance" xsi:schemaLocation="http://www.topografix.com/GPX/1/1 http://www.topografix.com/GPX/1/1/gpx.xsd http://www.garmin.com/xmlschemas/GpxExtensions/v3 http://www8.garmin.com/xmlschemas/GpxExtensionsv3.xsd http://www.garmin.com/xmlschemas/WaypointExtension/v1 http://www8.garmin.com/xmlschemas/WaypointExtensionv1.xsd http://www.garmin.com/xmlschemas/TrackPointExtension/v1 http://www.garmin.com/xmlschemas/TrackPointExtensionv1.xsd"><metadata><link href="http://www.garmin.com"><text>Garmin International</text></link><time>2014-09-03T14:12:03Z</time></metadata><trk><name>Current Track: 03 SEP 2014 10:00</name><extensions><gpxx:TrackExtension><gpxx:DisplayColor>Cyan</gpxx:DisplayColor></gpxx:TrackExtension></extensions><trkseg><trkpt lat="51.9869807269" lon="-1.7043637019"><ele>112.13</ele><time>2014-09-03T09:00:25Z</time></trkpt><trkpt lat="51.9869804755" lon="-1.7043639533"><ele>110.69</ele><time>2014-09-03T09:00:27Z</time></trkpt><trkpt lat="51.9869706687" lon="-1.7043539789"><ele>111.65</ele><time>2014-09-03T09:00:41Z</time></trkpt><trkpt lat="51.9870223012" lon="-1.7042640410"><ele>111.65</ele><time>2014-09-03T09:00:56Z</time></trkpt><trkpt lat="51.9871056173" lon="-1.7041527294"><ele>112.13</ele><time>2014-09-03T09:01:08Z</time></trkpt><trkpt lat="51.9871102273" lon="-1.7041467782"><ele>111.17</ele><time>2014-09-03T09:01:11Z</time></trkpt><trkpt lat="51.9871565793" lon="-1.7041402403"><ele>111.17</ele><time>2014-09-03T09:01:17Z</time></trkpt><trkpt lat="51.9872086309" lon="-1.7041961476"><ele>111.17</ele><time>2014-09-03T09:01:22Z</time></trkpt><trkpt lat="51.9873781130" lon="-1.7041134182"><ele>111.17</ele><time>2014-09-03T09:01:37Z</time></trkpt><trkpt lat="51.9875525404" lon="-1.7040122487"><ele>111.17</ele><time>2014-09-03T09:01:51Z</time></trkpt><trkpt lat="51.9875813741" lon="-1.7040097341"><ele>110.69</ele><time>2014-09-03T09:01:53Z</time></trkpt><trkpt lat="51.9877967052" lon="-1.7039582692"><ele>110.69</ele><time>2014-09-03T09:02:08Z</time></trkpt><trkpt lat="51.9879351743" lon="-1.7039582692"><ele>111.17</ele><time>2014-09-03T09:02:23Z</time></trkpt><trkpt lat="51.9879770000" lon="-1.7039628793"><ele>111.17</ele><time>2014-09-03T09:02:25Z</time></trkpt><trkpt lat="51.9880301412" lon="-1.7039586045"><ele>111.17</ele><time>2014-09-03T09:02:27Z</time></trkpt><trkpt lat="51.9881049078" lon="-1.7039607000"><ele>111.17</ele><time>2014-09-03T09:02:32Z</time></trkpt><trkpt lat="51.9881349150" lon="-1.7039482109"><ele>110.69</ele><time>2014-09-03T09:02:35Z</time></trkpt><trkpt lat="51.9882513396" lon="-1.7039340455"><ele>110.69</ele><time>2014-09-03T09:02:42Z</time></trkpt><trkpt lat="51.9883924909" lon="-1.7039322015"><ele>110.21</ele><time>2014-09-03T09:02:55Z</time></trkpt><trkpt lat="51.9885276072" lon="-1.7039081454"><ele>110.21</ele><time>2014-09-03T09:03:07Z</time></trkpt><trkpt lat="51.9885348994" lon="-1.7039069720"><ele>110.21</ele><time>2014-09-03T09:03:08Z</time></trkpt><trkpt lat="51.9886984304" lon="-1.7038390785"><ele>110.69</ele><time>2014-09-03T09:03:20Z</time></trkpt><trkpt lat="51.9887785614" lon="-1.7037804052"><ele>110.69</ele><time>2014-09-03T09:03:25Z</time></trkpt><trkpt lat="51.9889235683" lon="-1.7037115060"><ele>110.69</ele><time>2014-09-03T09:03:37Z</time></trkpt><trkpt lat="51.9891924597" lon="-1.7036186345"><ele>110.69</ele><time>2014-09-03T09:03:54Z</time></trkpt><trkpt lat="51.9892008416" lon="-1.7036276031"><ele>110.69</ele><time>2014-09-03T09:03:55Z</time></trkpt><trkpt lat="51.9892403204" lon="-1.7036510725"><ele>111.17</ele><time>2014-09-03T09:03:59Z</time></trkpt><trkpt lat="51.9893852435" lon="-1.7036027927"><ele>111.17</ele><time>2014-09-03T09:04:15Z</time></trkpt><trkpt lat="51.9894909393" lon="-1.7035721149"><ele>111.17</ele><time>2014-09-03T09:04:30Z</time></trkpt><trkpt lat="51.9895097148" lon="-1.7035751324"><ele>111.65</ele><time>2014-09-03T09:04:36Z</time></trkpt><trkpt lat="51.9895962160" lon="-1.7035832629"><ele>111.65</ele><time>2014-09-03T09:04:44Z</time></trkpt><trkpt lat="51.9896521233" lon="-1.7035878729"><ele>111.65</ele><time>2014-09-03T09:04:57Z</time></trkpt><trkpt lat="51.9897136465" lon="-1.7035338935"><ele>111.65</ele><time>2014-09-03T09:05:14Z</time></trkpt><trkpt lat="51.9899122138" lon="-1.7035271041"><ele>112.13</ele><time>2014-09-03T09:05:26Z</time></trkpt><trkpt lat="51.9899910036" lon="-1.7035650741"><ele>112.13</ele><time>2014-09-03T09:05:29Z</time></trkpt><trkpt lat="51.9900257047" lon="-1.7035763059"><ele>112.13</ele><time>2014-09-03T09:05:31Z</time></trkpt><trkpt lat="51.9902048260" lon="-1.7035628110"><ele>112.13</ele><time>2014-09-03T09:05:44Z</time></trkpt><trkpt lat="51.9902577158" lon="-1.7036390025"><ele>112.61</ele><time>2014-09-03T09:05:59Z</time></trkpt><trkpt lat="51.9903140422" lon="-1.7039363924"><ele>112.61</ele><time>2014-09-03T09:06:17Z</time></trkpt><trkpt lat="51.9903265312" lon="-1.7042001709"><ele>112.61</ele><time>2014-09-03T09:06:35Z</time></trkpt><trkpt lat="51.9903497491" lon="-1.7043870036"><ele>113.09</ele><time>2014-09-03T09:06:47Z</time></trkpt><trkpt lat="51.9903497491" lon="-1.7046585772"><ele>113.57</ele><time>2014-09-03T09:07:04Z</time></trkpt><trkpt lat="51.9903393555" lon="-1.7049047537"><ele>113.57</ele><time>2014-09-03T09:07:22Z</time></trkpt><trkpt lat="51.9903398585" lon="-1.7049142253"><ele>110.21</ele><time>2014-09-03T09:07:31Z</time></trkpt><trkpt lat="51.9903399423" lon="-1.7049143091"><ele>115.50</ele><time>2014-09-03T09:07:32Z</time></trkpt><trkpt lat="51.9903360866" lon="-1.7048960365"><ele>114.05</ele><time>2014-09-03T09:07:50Z</time></trkpt><trkpt lat="51.9903502520" lon="-1.7049286421"><ele>114.05</ele><time>2014-09-03T09:08:09Z</time></trkpt><trkpt lat="51.9903593045" lon="-1.7049247026"><ele>114.05</ele><time>2014-09-03T09:08:25Z</time></trkpt><trkpt lat="51.9904173072" lon="-1.7049076036"><ele>114.53</ele><time>2014-09-03T09:08:41Z</time></trkpt><trkpt lat="51.9905852806" lon="-1.7048590723"><ele>115.01</ele><time>2014-09-03T09:08:56Z</time></trkpt><trkpt lat="51.9907810818" lon="-1.7047684640"><ele>114.53</ele><time>2014-09-03T09:09:17Z</time></trkpt><trkpt lat="51.9909049664" lon="-1.7047390435"><ele>115.01</ele><time>2014-09-03T09:09:26Z</time></trkpt><trkpt lat="51.9910026994" lon="-1.7047174182"><ele>115.50</ele><time>2014-09-03T09:09:32Z</time></trkpt><trkpt lat="51.9912053738" lon="-1.7046784423"><ele>115.50</ele><time>2014-09-03T09:09:52Z</time></trkpt><trkpt lat="51.9912683219" lon="-1.7046331801"><ele>115.01</ele><time>2014-09-03T09:09:58Z</time></trkpt><trkpt lat="51.9912947249" lon="-1.7046035081"><ele>115.50</ele><time>2014-09-03T09:10:00Z</time></trkpt><trkpt lat="51.9914194476" lon="-1.7045408115"><ele>115.50</ele><time>2014-09-03T09:10:15Z</time></trkpt><trkpt lat="51.9914942142" lon="-1.7045226227"><ele>115.01</ele><time>2014-09-03T09:10:29Z</time></trkpt><trkpt lat="51.9915787876" lon="-1.7044849042"><ele>115.50</ele><time>2014-09-03T09:10:42Z</time></trkpt><trkpt lat="51.9917255547" lon="-1.7044564057"><ele>115.50</ele><time>2014-09-03T09:10:56Z</time></trkpt><trkpt lat="51.9918076973" lon="-1.7044239677"><ele>115.50</ele><time>2014-09-03T09:11:03Z</time></trkpt><trkpt lat="51.9918808714" lon="-1.7043746822"><ele>115.98</ele><time>2014-09-03T09:11:11Z</time></trkpt><trkpt lat="51.9919839688" lon="-1.7043320183"><ele>115.01</ele><time>2014-09-03T09:11:22Z</time></trkpt><trkpt lat="51.9921270479" lon="-1.7042732611"><ele>115.50</ele><time>2014-09-03T09:11:37Z</time></trkpt><trkpt lat="51.9922309835" lon="-1.7042203713"><ele>115.50</ele><time>2014-09-03T09:11:51Z</time></trkpt><trkpt lat="51.9924415369" lon="-1.7041580938"><ele>115.01</ele><time>2014-09-03T09:12:10Z</time></trkpt><trkpt lat="51.9925103523" lon="-1.7041729297"><ele>115.01</ele><time>2014-09-03T09:12:28Z</time></trkpt><trkpt lat="51.9925326481" lon="-1.7042424157"><ele>115.50</ele><time>2014-09-03T09:12:42Z</time></trkpt><trkpt lat="51.9925329834" lon="-1.7041661404"><ele>115.50</ele><time>2014-09-03T09:13:03Z</time></trkpt><trkpt lat="51.9925400242" lon="-1.7041442636"><ele>115.01</ele><time>2014-09-03T09:13:25Z</time></trkpt><trkpt lat="51.9925397728" lon="-1.7041374743"><ele>115.98</ele><time>2014-09-03T09:13:46Z</time></trkpt><trkpt lat="51.9925042335" lon="-1.7041523941"><ele>115.98</ele><time>2014-09-03T09:14:09Z</time></trkpt><trkpt lat="51.9925039820" lon="-1.7041534837"><ele>103.96</ele><time>2014-09-03T09:14:15Z</time></trkpt><trkpt lat="51.9925039820" lon="-1.7041535676"><ele>119.34</ele><time>2014-09-03T09:14:16Z</time></trkpt><trkpt lat="51.9925067481" lon="-1.7041556630"><ele>118.38</ele><time>2014-09-03T09:14:17Z</time></trkpt><trkpt lat="51.9925039820" lon="-1.7041537352"><ele>115.98</ele><time>2014-09-03T09:14:19Z</time></trkpt><trkpt lat="51.9925533514" lon="-1.7041706666"><ele>101.08</ele><time>2014-09-03T09:14:28Z</time></trkpt><trkpt lat="51.9925529324" lon="-1.7041711695"><ele>122.71</ele><time>2014-09-03T09:14:29Z</time></trkpt><trkpt lat="51.9925505854" lon="-1.7041690741"><ele>116.46</ele><time>2014-09-03T09:14:30Z</time></trkpt><trkpt lat="51.9925060775" lon="-1.7041851673"><ele>116.94</ele><time>2014-09-03T09:14:49Z</time></trkpt><trkpt lat="51.9923448097" lon="-1.7042284179"><ele>117.42</ele><time>2014-09-03T09:15:05Z</time></trkpt><trkpt lat="51.9923576340" lon="-1.7043432500"><ele>116.46</ele><time>2014-09-03T09:15:17Z</time></trkpt><trkpt lat="51.9923877250" lon="-1.7042721715"><ele>116.46</ele><time>2014-09-03T09:15:30Z</time></trkpt><trkpt lat="51.9925542735" lon="-1.7041829880"><ele>115.98</ele><time>2014-09-03T09:15:46Z</time></trkpt><trkpt lat="51.9927650783" lon="-1.7040216364"><ele>115.98</ele><time>2014-09-03T09:16:03Z</time></trkpt><trkpt lat="51.9928591233" lon="-1.7040048726"><ele>116.46</ele><time>2014-09-03T09:16:16Z</time></trkpt><trkpt lat="51.9929074869" lon="-1.7040493805"><ele>115.98</ele><time>2014-09-03T09:16:34Z</time></trkpt><trkpt lat="51.9929865282" lon="-1.7040860094"><ele>115.98</ele><time>2014-09-03T09:16:51Z</time></trkpt><trkpt lat="51.9931265898" lon="-1.7040994205"><ele>115.98</ele><time>2014-09-03T09:17:04Z</time></trkpt><trkpt lat="51.9933047891" lon="-1.7041204590"><ele>116.46</ele><time>2014-09-03T09:17:19Z</time></trkpt><trkpt lat="51.9935026858" lon="-1.7041163519"><ele>116.46</ele><time>2014-09-03T09:17:37Z</time></trkpt><trkpt lat="51.9937051926" lon="-1.7041002586"><ele>116.94</ele><time>2014-09-03T09:17:55Z</time></trkpt><trkpt lat="51.9938785303" lon="-1.7040823214"><ele>117.42</ele><time>2014-09-03T09:18:12Z</time></trkpt><trkpt lat="51.9940245431" lon="-1.7040896136"><ele>117.90</ele><time>2014-09-03T09:18:28Z</time></trkpt><trkpt lat="51.9942115434" lon="-1.7040474527"><ele>118.38</ele><time>2014-09-03T09:18:49Z</time></trkpt><trkpt lat="51.9942950271" lon="-1.7040437646"><ele>118.86</ele><time>2014-09-03T09:19:09Z</time></trkpt><trkpt lat="51.9943430554" lon="-1.7040346283"><ele>119.34</ele><time>2014-09-03T09:19:26Z</time></trkpt><trkpt lat="51.9943846297" lon="-1.7040240671"><ele>118.86</ele><time>2014-09-03T09:19:44Z</time></trkpt><trkpt lat="51.9944075961" lon="-1.7040348798"><ele>119.34</ele><time>2014-09-03T09:20:01Z</time></trkpt><trkpt lat="51.9944951031" lon="-1.7040894460"><ele>119.82</ele><time>2014-09-03T09:20:15Z</time></trkpt><trkpt lat="51.9946667645" lon="-1.7041683197"><ele>119.34</ele><time>2014-09-03T09:20:32Z</time></trkpt><trkpt lat="51.9948535133" lon="-1.7043573316"><ele>119.34</ele><time>2014-09-03T09:20:48Z</time></trkpt><trkpt lat="51.9948933274" lon="-1.7044682242"><ele>119.34</ele><time>2014-09-03T09:21:05Z</time></trkpt><trkpt lat="51.9950133562" lon="-1.7048537917"><ele>119.82</ele><time>2014-09-03T09:21:25Z</time></trkpt><trkpt lat="51.9951983448" lon="-1.7048456613"><ele>119.82</ele><time>2014-09-03T09:21:43Z</time></trkpt><trkpt lat="51.9952427689" lon="-1.7048482597"><ele>119.82</ele><time>2014-09-03T09:21:48Z</time></trkpt><trkpt lat="51.9952778891" lon="-1.7048578151"><ele>119.34</ele><time>2014-09-03T09:21:51Z</time></trkpt><trkpt lat="51.9953363948" lon="-1.7048584018"><ele>119.82</ele><time>2014-09-03T09:21:57Z</time></trkpt><trkpt lat="51.9954085629" lon="-1.7048649397"><ele>120.30</ele><time>2014-09-03T09:22:14Z</time></trkpt><trkpt lat="51.9956362154" lon="-1.7048819549"><ele>119.82</ele><time>2014-09-03T09:22:32Z</time></trkpt><trkpt lat="51.9957839046" lon="-1.7049110401"><ele>120.30</ele><time>2014-09-03T09:22:45Z</time></trkpt><trkpt lat="51.9959053583" lon="-1.7048843857"><ele>119.82</ele><time>2014-09-03T09:22:53Z</time></trkpt><trkpt lat="51.9960930292" lon="-1.7048615869"><ele>120.78</ele><time>2014-09-03T09:23:09Z</time></trkpt><trkpt lat="51.9962463342" lon="-1.7048361897"><ele>120.78</ele><time>2014-09-03T09:23:25Z</time></trkpt><trkpt lat="51.9963988848" lon="-1.7048216891"><ele>120.78</ele><time>2014-09-03T09:23:42Z</time></trkpt><trkpt lat="51.9966087677" lon="-1.7047116347"><ele>120.78</ele><time>2014-09-03T09:24:01Z</time></trkpt><trkpt lat="51.9967248570" lon="-1.7046783585"><ele>120.78</ele><time>2014-09-03T09:24:14Z</time></trkpt><trkpt lat="51.9968568720" lon="-1.7046688031"><ele>121.26</ele><time>2014-09-03T09:24:28Z</time></trkpt><trkpt lat="51.9969940837" lon="-1.7046639416"><ele>121.26</ele><time>2014-09-03T09:24:43Z</time></trkpt><trkpt lat="51.9971028809" lon="-1.7046568170"><ele>121.26</ele><time>2014-09-03T09:24:53Z</time></trkpt><trkpt lat="51.9972400926" lon="-1.7046370357"><ele>121.74</ele><time>2014-09-03T09:25:08Z</time></trkpt><trkpt lat="51.9973111711" lon="-1.7046065256"><ele>121.74</ele><time>2014-09-03T09:25:16Z</time></trkpt><trkpt lat="51.9973907992" lon="-1.7045672983"><ele>121.74</ele><time>2014-09-03T09:25:26Z</time></trkpt><trkpt lat="51.9974616263" lon="-1.7045627721"><ele>121.74</ele><time>2014-09-03T09:25:41Z</time></trkpt><trkpt lat="51.9974632189" lon="-1.7045617662"><ele>121.74</ele><time>2014-09-03T09:25:42Z</time></trkpt><trkpt lat="51.9975440204" lon="-1.7045768537"><ele>121.74</ele><time>2014-09-03T09:25:56Z</time></trkpt><trkpt lat="51.9976838306" lon="-1.7046118062"><ele>121.74</ele><time>2014-09-03T09:26:11Z</time></trkpt><trkpt lat="51.9978642091" lon="-1.7046376225"><ele>121.74</ele><time>2014-09-03T09:26:27Z</time></trkpt><trkpt lat="51.9979923684" lon="-1.7046258040"><ele>122.22</ele><time>2014-09-03T09:26:43Z</time></trkpt><trkpt lat="51.9980323501" lon="-1.7046323419"><ele>122.22</ele><time>2014-09-03T09:27:01Z</time></trkpt><trkpt lat="51.9980377983" lon="-1.7046503630"><ele>122.22</ele><time>2014-09-03T09:27:07Z</time></trkpt><trkpt lat="51.9980811328" lon="-1.7049389519"><ele>122.22</ele><time>2014-09-03T09:27:24Z</time></trkpt><trkpt lat="51.9981306698" lon="-1.7051210068"><ele>122.71</ele><time>2014-09-03T09:27:37Z</time></trkpt><trkpt lat="51.9982946198" lon="-1.7052284628"><ele>122.71</ele><time>2014-09-03T09:27:55Z</time></trkpt><trkpt lat="51.9984701369" lon="-1.7052592244"><ele>122.71</ele><time>2014-09-03T09:28:13Z</time></trkpt><trkpt lat="51.9986210112" lon="-1.7052855436"><ele>123.67</ele><time>2014-09-03T09:28:31Z</time></trkpt><trkpt lat="51.9987641741" lon="-1.7052992061"><ele>123.67</ele><time>2014-09-03T09:28:47Z</time></trkpt><trkpt lat="51.9988991227" lon="-1.7053003795"><ele>123.19</ele><time>2014-09-03T09:29:00Z</time></trkpt><trkpt lat="51.9990542717" lon="-1.7053066660"><ele>123.67</ele><time>2014-09-03T09:29:14Z</time></trkpt><trkpt lat="51.9991970994" lon="-1.7053224239"><ele>124.15</ele><time>2014-09-03T09:29:28Z</time></trkpt><trkpt lat="51.9993507396" lon="-1.7053675186"><ele>123.67</ele><time>2014-09-03T09:29:44Z</time></trkpt><trkpt lat="51.9994201418" lon="-1.7053541914"><ele>123.67</ele><time>2014-09-03T09:29:57Z</time></trkpt><trkpt lat="51.9995116722" lon="-1.7053469829"><ele>124.63</ele><time>2014-09-03T09:30:14Z</time></trkpt><trkpt lat="51.9997181185" lon="-1.7053036485"><ele>124.15</ele><time>2014-09-03T09:30:32Z</time></trkpt><trkpt lat="51.9998799730" lon="-1.7052966077"><ele>124.63</ele><time>2014-09-03T09:30:46Z</time></trkpt><trkpt lat="52.0000726730" lon="-1.7052681930"><ele>124.63</ele><time>2014-09-03T09:31:05Z</time></trkpt><trkpt lat="52.0002409816" lon="-1.7052334920"><ele>124.63</ele><time>2014-09-03T09:31:23Z</time></trkpt><trkpt lat="52.0004386269" lon="-1.7051889002"><ele>125.11</ele><time>2014-09-03T09:31:42Z</time></trkpt><trkpt lat="52.0006273873" lon="-1.7051379383"><ele>125.59</ele><time>2014-09-03T09:31:59Z</time></trkpt><trkpt lat="52.0007763337" lon="-1.7051203363"><ele>125.59</ele><time>2014-09-03T09:32:14Z</time></trkpt><trkpt lat="52.0008559618" lon="-1.7051148042"><ele>125.59</ele><time>2014-09-03T09:32:23Z</time></trkpt><trkpt lat="52.0008794311" lon="-1.7051108647"><ele>126.07</ele><time>2014-09-03T09:32:26Z</time></trkpt><trkpt lat="52.0010776632" lon="-1.7050910834"><ele>125.59</ele><time>2014-09-03T09:32:45Z</time></trkpt><trkpt lat="52.0012619812" lon="-1.7050816957"><ele>125.59</ele><time>2014-09-03T09:33:02Z</time></trkpt><trkpt lat="52.0014032163" lon="-1.7051027343"><ele>126.07</ele><time>2014-09-03T09:33:17Z</time></trkpt><trkpt lat="52.0014241710" lon="-1.7051074281"><ele>126.07</ele><time>2014-09-03T09:33:23Z</time></trkpt><trkpt lat="52.0014499035" lon="-1.7050992139"><ele>126.07</ele><time>2014-09-03T09:33:26Z</time></trkpt><trkpt lat="52.0014976803" lon="-1.7050947715"><ele>126.07</ele><time>2014-09-03T09:33:32Z</time></trkpt><trkpt lat="52.0015350636" lon="-1.7051141337"><ele>125.59</ele><time>2014-09-03T09:33:48Z</time></trkpt><trkpt lat="52.0015556831" lon="-1.7051148042"><ele>126.07</ele><time>2014-09-03T09:34:06Z</time></trkpt><trkpt lat="52.0015762188" lon="-1.7051129602"><ele>126.07</ele><time>2014-09-03T09:34:16Z</time></trkpt><trkpt lat="52.0015980955" lon="-1.7051074281"><ele>126.07</ele><time>2014-09-03T09:34:19Z</time></trkpt><trkpt lat="52.0016491413" lon="-1.7051112838"><ele>126.07</ele><time>2014-09-03T09:34:23Z</time></trkpt><trkpt lat="52.0018480439" lon="-1.7051805183"><ele>127.03</ele><time>2014-09-03T09:34:41Z</time></trkpt><trkpt lat="52.0020394027" lon="-1.7052282952"><ele>127.99</ele><time>2014-09-03T09:35:00Z</time></trkpt><trkpt lat="52.0022067055" lon="-1.7052782513"><ele>128.47</ele><time>2014-09-03T09:35:16Z</time></trkpt><trkpt lat="52.0023703203" lon="-1.7053176463"><ele>128.47</ele><time>2014-09-03T09:35:34Z</time></trkpt><trkpt lat="52.0024866611" lon="-1.7053329851"><ele>128.47</ele><time>2014-09-03T09:35:48Z</time></trkpt><trkpt lat="52.0026694704" lon="-1.7053503357"><ele>128.47</ele><time>2014-09-03T09:36:05Z</time></trkpt><trkpt lat="52.0028858911" lon="-1.7052987032"><ele>128.95</ele><time>2014-09-03T09:36:23Z</time></trkpt><trkpt lat="52.0030279644" lon="-1.7052758206"><ele>128.95</ele><time>2014-09-03T09:36:38Z</time></trkpt><trkpt lat="52.0031534415" lon="-1.7052763235"><ele>128.95</ele><time>2014-09-03T09:36:56Z</time></trkpt><trkpt lat="52.0032284595" lon="-1.7052417900"><ele>128.95</ele><time>2014-09-03T09:37:02Z</time></trkpt><trkpt lat="52.0033254381" lon="-1.7051788419"><ele>129.43</ele><time>2014-09-03T09:37:17Z</time></trkpt><trkpt lat="52.0033988636" lon="-1.7052002996"><ele>128.95</ele><time>2014-09-03T09:37:31Z</time></trkpt><trkpt lat="52.0034217462" lon="-1.7051940970"><ele>128.95</ele><time>2014-09-03T09:37:33Z</time></trkpt><trkpt lat="52.0036224928" lon="-1.7051495053"><ele>128.95</ele><time>2014-09-03T09:37:51Z</time></trkpt><trkpt lat="52.0038205571" lon="-1.7050707154"><ele>129.43</ele><time>2014-09-03T09:38:09Z</time></trkpt><trkpt lat="52.0039005205" lon="-1.7050605733"><ele>129.92</ele><time>2014-09-03T09:38:24Z</time></trkpt><trkpt lat="52.0039249957" lon="-1.7050407082"><ele>129.92</ele><time>2014-09-03T09:38:44Z</time></trkpt><trkpt lat="52.0041212998" lon="-1.7049963679"><ele>129.92</ele><time>2014-09-03T09:39:02Z</time></trkpt><trkpt lat="52.0043398999" lon="-1.7049455736"><ele>129.92</ele><time>2014-09-03T09:39:17Z</time></trkpt><trkpt lat="52.0043612737" lon="-1.7049458250"><ele>129.92</ele><time>2014-09-03T09:39:19Z</time></trkpt><trkpt lat="52.0044279937" lon="-1.7050086893"><ele>130.40</ele><time>2014-09-03T09:39:35Z</time></trkpt><trkpt lat="52.0044243895" lon="-1.7050407920"><ele>131.36</ele><time>2014-09-03T09:39:53Z</time></trkpt><trkpt lat="52.0044176839" lon="-1.7051427159"><ele>130.88</ele><time>2014-09-03T09:39:59Z</time></trkpt><trkpt lat="52.0043978188" lon="-1.7055269424"><ele>130.88</ele><time>2014-09-03T09:40:16Z</time></trkpt><trkpt lat="52.0044160075" lon="-1.7057668325"><ele>131.36</ele><time>2014-09-03T09:40:31Z</time></trkpt><trkpt lat="52.0044288319" lon="-1.7059606221"><ele>131.84</ele><time>2014-09-03T09:40:46Z</time></trkpt><trkpt lat="52.0044269878" lon="-1.7061293498"><ele>131.36</ele><time>2014-09-03T09:41:01Z</time></trkpt><trkpt lat="52.0044201147" lon="-1.7064831499"><ele>131.36</ele><time>2014-09-03T09:41:20Z</time></trkpt><trkpt lat="52.0044042729" lon="-1.7067894246"><ele>132.32</ele><time>2014-09-03T09:41:39Z</time></trkpt><trkpt lat="52.0044131577" lon="-1.7071876489"><ele>132.32</ele><time>2014-09-03T09:42:00Z</time></trkpt><trkpt lat="52.0044134930" lon="-1.7075436283"><ele>132.32</ele><time>2014-09-03T09:42:19Z</time></trkpt><trkpt lat="52.0044155885" lon="-1.7078841850"><ele>132.80</ele><time>2014-09-03T09:42:38Z</time></trkpt><trkpt lat="52.0044150855" lon="-1.7081577703"><ele>132.80</ele><time>2014-09-03T09:42:56Z</time></trkpt><trkpt lat="52.0044179354" lon="-1.7084623687"><ele>133.28</ele><time>2014-09-03T09:43:15Z</time></trkpt><trkpt lat="52.0044171810" lon="-1.7087168433"><ele>133.28</ele><time>2014-09-03T09:43:31Z</time></trkpt><trkpt lat="52.0044254791" lon="-1.7090430669"><ele>133.76</ele><time>2014-09-03T09:43:48Z</time></trkpt><trkpt lat="52.0044227969" lon="-1.7094146367"><ele>134.24</ele><time>2014-09-03T09:44:06Z</time></trkpt><trkpt lat="52.0044487808" lon="-1.7098338157"><ele>134.72</ele><time>2014-09-03T09:44:27Z</time></trkpt><trkpt lat="52.0044761058" lon="-1.7101734504"><ele>135.68</ele><time>2014-09-03T09:44:44Z</time></trkpt><trkpt lat="52.0044898521" lon="-1.7102006916"><ele>135.68</ele><time>2014-09-03T09:45:00Z</time></trkpt><trkpt lat="52.0044904388" lon="-1.7102037091"><ele>136.16</ele><time>2014-09-03T09:45:01Z</time></trkpt><trkpt lat="52.0044720825" lon="-1.7106151767"><ele>136.64</ele><time>2014-09-03T09:45:19Z</time></trkpt><trkpt lat="52.0044652093" lon="-1.7109667975"><ele>137.13</ele><time>2014-09-03T09:45:35Z</time></trkpt><trkpt lat="52.0044688974" lon="-1.7109727487"><ele>136.64</ele><time>2014-09-03T09:45:39Z</time></trkpt><trkpt lat="52.0044691488" lon="-1.7109921109"><ele>137.13</ele><time>2014-09-03T09:45:41Z</time></trkpt><trkpt lat="52.0044745132" lon="-1.7110988963"><ele>136.64</ele><time>2014-09-03T09:45:47Z</time></trkpt><trkpt lat="52.0044740941" lon="-1.7113888264"><ele>137.13</ele><time>2014-09-03T09:46:03Z</time></trkpt><trkpt lat="52.0044745971" lon="-1.7114325799"><ele>137.61</ele><time>2014-09-03T09:46:05Z</time></trkpt><trkpt lat="52.0044729207" lon="-1.7117171455"><ele>137.61</ele><time>2014-09-03T09:46:19Z</time></trkpt><trkpt lat="52.0044745971" lon="-1.7117386870"><ele>137.61</ele><time>2014-09-03T09:46:20Z</time></trkpt><trkpt lat="52.0044470206" lon="-1.7119928263"><ele>137.61</ele><time>2014-09-03T09:46:34Z</time></trkpt><trkpt lat="52.0044399798" lon="-1.7121345643"><ele>137.61</ele><time>2014-09-03T09:46:41Z</time></trkpt><trkpt lat="52.0044263173" lon="-1.7123127636"><ele>138.57</ele><time>2014-09-03T09:46:50Z</time></trkpt><trkpt lat="52.0044394769" lon="-1.7124307808"><ele>138.09</ele><time>2014-09-03T09:46:55Z</time></trkpt><trkpt lat="52.0044466015" lon="-1.7125161085"><ele>138.57</ele><time>2014-09-03T09:47:00Z</time></trkpt><trkpt lat="52.0044422429" lon="-1.7128081340"><ele>138.57</ele><time>2014-09-03T09:47:15Z</time></trkpt><trkpt lat="52.0044348668" lon="-1.7130824737"><ele>138.09</ele><time>2014-09-03T09:47:29Z</time></trkpt><trkpt lat="52.0044429973" lon="-1.7131632753"><ele>138.09</ele><time>2014-09-03T09:47:33Z</time></trkpt><trkpt lat="52.0044448413" lon="-1.7135211825"><ele>137.61</ele><time>2014-09-03T09:47:50Z</time></trkpt><trkpt lat="52.0044433326" lon="-1.7138515972"><ele>137.61</ele><time>2014-09-03T09:48:06Z</time></trkpt><trkpt lat="52.0044422429" lon="-1.7138704564"><ele>137.61</ele><time>2014-09-03T09:48:07Z</time></trkpt><trkpt lat="52.0044424105" lon="-1.7139678542"><ele>137.61</ele><time>2014-09-03T09:48:12Z</time></trkpt><trkpt lat="52.0044436678" lon="-1.7143317126"><ele>138.09</ele><time>2014-09-03T09:48:30Z</time></trkpt><trkpt lat="52.0044471044" lon="-1.7147006001"><ele>137.61</ele><time>2014-09-03T09:48:48Z</time></trkpt><trkpt lat="52.0044407342" lon="-1.7150018457"><ele>138.09</ele><time>2014-09-03T09:49:03Z</time></trkpt><trkpt lat="52.0044362079" lon="-1.7150837369"><ele>138.09</ele><time>2014-09-03T09:49:07Z</time></trkpt><trkpt lat="52.0043896046" lon="-1.7153968848"><ele>138.57</ele><time>2014-09-03T09:49:25Z</time></trkpt><trkpt lat="52.0043675601" lon="-1.7156220227"><ele>139.05</ele><time>2014-09-03T09:49:38Z</time></trkpt><trkpt lat="52.0043205377" lon="-1.7158988770"><ele>139.05</ele><time>2014-09-03T09:49:55Z</time></trkpt><trkpt lat="52.0043098088" lon="-1.7159684468"><ele>139.53</ele><time>2014-09-03T09:50:08Z</time></trkpt><trkpt lat="52.0043118205" lon="-1.7159871385"><ele>139.53</ele><time>2014-09-03T09:50:21Z</time></trkpt><trkpt lat="52.0042209607" lon="-1.7161894776"><ele>139.53</ele><time>2014-09-03T09:50:33Z</time></trkpt><trkpt lat="52.0041832421" lon="-1.7164604645"><ele>139.53</ele><time>2014-09-03T09:50:48Z</time></trkpt><trkpt lat="52.0041780453" lon="-1.7165327165"><ele>139.53</ele><time>2014-09-03T09:50:52Z</time></trkpt><trkpt lat="52.0041659754" lon="-1.7165900487"><ele>139.53</ele><time>2014-09-03T09:50:55Z</time></trkpt><trkpt lat="52.0041627903" lon="-1.7168676574"><ele>140.01</ele><time>2014-09-03T09:51:10Z</time></trkpt><trkpt lat="52.0041606948" lon="-1.7169420049"><ele>140.01</ele><time>2014-09-03T09:51:13Z</time></trkpt><trkpt lat="52.0041591022" lon="-1.7170524783"><ele>140.49</ele><time>2014-09-03T09:51:18Z</time></trkpt><trkpt lat="52.0042186975" lon="-1.7172757722"><ele>140.49</ele><time>2014-09-03T09:51:29Z</time></trkpt><trkpt lat="52.0042160153" lon="-1.7172966432"><ele>140.49</ele><time>2014-09-03T09:51:30Z</time></trkpt><trkpt lat="52.0042062085" lon="-1.7174085416"><ele>140.49</ele><time>2014-09-03T09:51:35Z</time></trkpt><trkpt lat="52.0041665621" lon="-1.7178097833"><ele>141.45</ele><time>2014-09-03T09:51:54Z</time></trkpt><trkpt lat="52.0041252393" lon="-1.7180697061"><ele>141.45</ele><time>2014-09-03T09:52:08Z</time></trkpt><trkpt lat="52.0041070506" lon="-1.7181711271"><ele>141.93</ele><time>2014-09-03T09:52:13Z</time></trkpt><trkpt lat="52.0040682424" lon="-1.7183394358"><ele>142.41</ele><time>2014-09-03T09:52:25Z</time></trkpt><trkpt lat="52.0039938111" lon="-1.7186670005"><ele>142.89</ele><time>2014-09-03T09:52:41Z</time></trkpt><trkpt lat="52.0039915480" lon="-1.7187043838"><ele>143.37</ele><time>2014-09-03T09:52:43Z</time></trkpt><trkpt lat="52.0039275941" lon="-1.7189702578"><ele>143.37</ele><time>2014-09-03T09:52:59Z</time></trkpt><trkpt lat="52.0038878638" lon="-1.7192295939"><ele>144.34</ele><time>2014-09-03T09:53:15Z</time></trkpt><trkpt lat="52.0038733631" lon="-1.7192908656"><ele>144.82</ele><time>2014-09-03T09:53:19Z</time></trkpt><trkpt lat="52.0038592815" lon="-1.7196374573"><ele>144.82</ele><time>2014-09-03T09:53:36Z</time></trkpt><trkpt lat="52.0038219821" lon="-1.7198333424"><ele>145.30</ele><time>2014-09-03T09:53:53Z</time></trkpt><trkpt lat="52.0038218144" lon="-1.7198882438"><ele>145.78</ele><time>2014-09-03T09:54:03Z</time></trkpt><trkpt lat="52.0038079843" lon="-1.7199881561"><ele>145.78</ele><time>2014-09-03T09:54:07Z</time></trkpt><trkpt lat="52.0038023684" lon="-1.7200601567"><ele>145.30</ele><time>2014-09-03T09:54:10Z</time></trkpt><trkpt lat="52.0038386621" lon="-1.7202960234"><ele>146.26</ele><time>2014-09-03T09:54:21Z</time></trkpt><trkpt lat="52.0038513187" lon="-1.7203427944"><ele>146.26</ele><time>2014-09-03T09:54:23Z</time></trkpt><trkpt lat="52.0038292743" lon="-1.7207193933"><ele>146.74</ele><time>2014-09-03T09:54:42Z</time></trkpt><trkpt lat="52.0038037933" lon="-1.7210302781"><ele>147.70</ele><time>2014-09-03T09:54:59Z</time></trkpt><trkpt lat="52.0037779771" lon="-1.7213467788"><ele>148.66</ele><time>2014-09-03T09:55:15Z</time></trkpt><trkpt lat="52.0037488919" lon="-1.7216113117"><ele>149.14</ele><time>2014-09-03T09:55:29Z</time></trkpt><trkpt lat="52.0037157834" lon="-1.7218618467"><ele>149.62</ele><time>2014-09-03T09:55:45Z</time></trkpt><trkpt lat="52.0036810823" lon="-1.7221558839"><ele>151.06</ele><time>2014-09-03T09:56:00Z</time></trkpt><trkpt lat="52.0037259255" lon="-1.7222128808"><ele>151.06</ele><time>2014-09-03T09:56:14Z</time></trkpt><trkpt lat="52.0037112571" lon="-1.7222237773"><ele>151.06</ele><time>2014-09-03T09:56:37Z</time></trkpt><trkpt lat="52.0037160348" lon="-1.7222202569"><ele>151.06</ele><time>2014-09-03T09:57:00Z</time></trkpt><trkpt lat="52.0037234109" lon="-1.7222154792"><ele>151.54</ele><time>2014-09-03T09:57:30Z</time></trkpt><trkpt lat="52.0037200581" lon="-1.7222163174"><ele>151.54</ele><time>2014-09-03T09:57:51Z</time></trkpt><trkpt lat="52.0037117600" lon="-1.7223017290"><ele>152.03</ele><time>2014-09-03T09:58:07Z</time></trkpt><trkpt lat="52.0036684256" lon="-1.7224246077"><ele>152.03</ele><time>2014-09-03T09:58:21Z</time></trkpt><trkpt lat="52.0036172122" lon="-1.7226191517"><ele>152.99</ele><time>2014-09-03T09:58:33Z</time></trkpt><trkpt lat="52.0035690162" lon="-1.7229286954"><ele>153.95</ele><time>2014-09-03T09:58:50Z</time></trkpt><trkpt lat="52.0035219938" lon="-1.7231449485"><ele>154.91</ele><time>2014-09-03T09:59:05Z</time></trkpt><trkpt lat="52.0035033021" lon="-1.7232178710"><ele>154.43</ele><time>2014-09-03T09:59:15Z</time></trkpt><trkpt lat="52.0034868736" lon="-1.7232449446"><ele>154.43</ele><time>2014-09-03T09:59:18Z</time></trkpt><trkpt lat="52.0034665894" lon="-1.7232309468"><ele>154.43</ele><time>2014-09-03T09:59:23Z</time></trkpt><trkpt lat="52.0033633243" lon="-1.7230726127"><ele>153.47</ele><time>2014-09-03T09:59:37Z</time></trkpt><trkpt lat="52.0032572094" lon="-1.7228098400"><ele>152.51</ele><time>2014-09-03T09:59:54Z</time></trkpt><trkpt lat="52.0031702053" lon="-1.7226650007"><ele>152.03</ele><time>2014-09-03T10:00:08Z</time></trkpt><trkpt lat="52.0031440537" lon="-1.7226576246"><ele>151.54</ele><time>2014-09-03T10:00:26Z</time></trkpt><trkpt lat="52.0030797645" lon="-1.7226900626"><ele>151.54</ele><time>2014-09-03T10:00:46Z</time></trkpt><trkpt lat="52.0030676108" lon="-1.7226786632"><ele>151.54</ele><time>2014-09-03T10:01:01Z</time></trkpt><trkpt lat="52.0030543674" lon="-1.7226924095"><ele>151.06</ele><time>2014-09-03T10:01:34Z</time></trkpt><trkpt lat="52.0030483324" lon="-1.7226979416"><ele>151.54</ele><time>2014-09-03T10:02:09Z</time></trkpt><trkpt lat="52.0030404534" lon="-1.7227017134"><ele>151.06</ele><time>2014-09-03T10:02:41Z</time></trkpt><trkpt lat="52.0030339994" lon="-1.7226894759"><ele>151.06</ele><time>2014-09-03T10:03:15Z</time></trkpt><trkpt lat="52.0030293893" lon="-1.7226801720"><ele>151.54</ele><time>2014-09-03T10:03:52Z</time></trkpt><trkpt lat="52.0030241925" lon="-1.7226888053"><ele>151.54</ele><time>2014-09-03T10:04:27Z</time></trkpt><trkpt lat="52.0030203369" lon="-1.7226837762"><ele>151.54</ele><time>2014-09-03T10:04:56Z</time></trkpt><trkpt lat="52.0030158944" lon="-1.7226793338"><ele>152.03</ele><time>2014-09-03T10:05:27Z</time></trkpt><trkpt lat="52.0030161459" lon="-1.7226700298"><ele>152.03</ele><time>2014-09-03T10:06:00Z</time></trkpt><trkpt lat="52.0030133799" lon="-1.7226747237"><ele>152.03</ele><time>2014-09-03T10:06:30Z</time></trkpt><trkpt lat="52.0030135475" lon="-1.7226841953"><ele>152.03</ele><time>2014-09-03T10:07:02Z</time></trkpt><trkpt lat="52.0030097757" lon="-1.7226889729"><ele>152.51</ele><time>2014-09-03T10:07:34Z</time></trkpt><trkpt lat="52.0030098595" lon="-1.7226848658"><ele>152.03</ele><time>2014-09-03T10:08:03Z</time></trkpt><trkpt lat="52.0030132122" lon="-1.7226890568"><ele>152.51</ele><time>2014-09-03T10:08:39Z</time></trkpt><trkpt lat="52.0030141342" lon="-1.7226919904"><ele>152.99</ele><time>2014-09-03T10:09:16Z</time></trkpt><trkpt lat="52.0030085184" lon="-1.7226934992"><ele>152.99</ele><time>2014-09-03T10:09:49Z</time></trkpt><trkpt lat="52.0030048303" lon="-1.7226893920"><ele>153.47</ele><time>2014-09-03T10:10:29Z</time></trkpt><trkpt lat="52.0030049141" lon="-1.7226895597"><ele>153.47</ele><time>2014-09-03T10:11:08Z</time></trkpt><trkpt lat="52.0030054171" lon="-1.7226862069"><ele>153.47</ele><time>2014-09-03T10:11:29Z</time></trkpt><trkpt lat="52.0030106138" lon="-1.7226768192"><ele>153.95</ele><time>2014-09-03T10:12:07Z</time></trkpt><trkpt lat="52.0030127093" lon="-1.7226685211"><ele>153.95</ele><time>2014-09-03T10:12:42Z</time></trkpt><trkpt lat="52.0030140504" lon="-1.7226587143"><ele>153.95</ele><time>2014-09-03T10:13:17Z</time></trkpt><trkpt lat="52.0030156430" lon="-1.7226538528"><ele>154.43</ele><time>2014-09-03T10:13:49Z</time></trkpt><trkpt lat="52.0030119549" lon="-1.7226596363"><ele>153.95</ele><time>2014-09-03T10:14:21Z</time></trkpt><trkpt lat="52.0030036569" lon="-1.7226618994"><ele>154.43</ele><time>2014-09-03T10:14:53Z</time></trkpt><trkpt lat="52.0029967837" lon="-1.7226689402"><ele>154.91</ele><time>2014-09-03T10:15:24Z</time></trkpt><trkpt lat="52.0029959455" lon="-1.7226690240"><ele>154.91</ele><time>2014-09-03T10:15:50Z</time></trkpt><trkpt lat="52.0029951911" lon="-1.7226705328"><ele>154.91</ele><time>2014-09-03T10:16:18Z</time></trkpt><trkpt lat="52.0029976219" lon="-1.7226753104"><ele>154.43</ele><time>2014-09-03T10:16:50Z</time></trkpt><trkpt lat="52.0030020643" lon="-1.7226730473"><ele>155.87</ele><time>2014-09-03T10:17:16Z</time></trkpt><trkpt lat="52.0030063391" lon="-1.7226773221"><ele>156.35</ele><time>2014-09-03T10:17:39Z</time></trkpt><trkpt lat="52.0030081831" lon="-1.7226841114"><ele>156.83</ele><time>2014-09-03T10:18:06Z</time></trkpt><trkpt lat="52.0030169003" lon="-1.7226893082"><ele>155.87</ele><time>2014-09-03T10:18:22Z</time></trkpt><trkpt lat="52.0030281320" lon="-1.7226910684"><ele>156.35</ele><time>2014-09-03T10:18:39Z</time></trkpt><trkpt lat="52.0030053332" lon="-1.7226774897"><ele>156.35</ele><time>2014-09-03T10:18:57Z</time></trkpt><trkpt lat="52.0029898267" lon="-1.7226844467"><ele>156.35</ele><time>2014-09-03T10:18:58Z</time></trkpt><trkpt lat="52.0029483363" lon="-1.7227645777"><ele>157.31</ele><time>2014-09-03T10:19:18Z</time></trkpt><trkpt lat="52.0028444007" lon="-1.7228225805"><ele>157.79</ele><time>2014-09-03T10:19:30Z</time></trkpt><trkpt lat="52.0027104579" lon="-1.7228948325"><ele>158.27</ele><time>2014-09-03T10:19:41Z</time></trkpt><trkpt lat="52.0026382059" lon="-1.7229485605"><ele>158.27</ele><time>2014-09-03T10:19:54Z</time></trkpt><trkpt lat="52.0024564862" lon="-1.7230608780"><ele>157.31</ele><time>2014-09-03T10:20:13Z</time></trkpt><trkpt lat="52.0023250580" lon="-1.7231464572"><ele>157.79</ele><time>2014-09-03T10:20:34Z</time></trkpt><trkpt lat="52.0021922048" lon="-1.7233339604"><ele>157.79</ele><time>2014-09-03T10:20:52Z</time></trkpt><trkpt lat="52.0020354632" lon="-1.7234605271"><ele>158.27</ele><time>2014-09-03T10:21:13Z</time></trkpt><trkpt lat="52.0020236447" lon="-1.7234708369"><ele>157.79</ele><time>2014-09-03T10:21:31Z</time></trkpt><trkpt lat="52.0020232257" lon="-1.7234866787"><ele>157.79</ele><time>2014-09-03T10:21:57Z</time></trkpt><trkpt lat="52.0020026900" lon="-1.7234987486"><ele>159.24</ele><time>2014-09-03T10:22:24Z</time></trkpt><trkpt lat="52.0019288454" lon="-1.7235270794"><ele>157.79</ele><time>2014-09-03T10:22:45Z</time></trkpt><trkpt lat="52.0017837547" lon="-1.7236181907"><ele>157.79</ele><time>2014-09-03T10:23:03Z</time></trkpt><trkpt lat="52.0016809925" lon="-1.7236238904"><ele>156.35</ele><time>2014-09-03T10:23:18Z</time></trkpt><trkpt lat="52.0016498119" lon="-1.7237491161"><ele>156.83</ele><time>2014-09-03T10:23:36Z</time></trkpt><trkpt lat="52.0014356542" lon="-1.7236062884"><ele>156.35</ele><time>2014-09-03T10:23:54Z</time></trkpt><trkpt lat="52.0014226623" lon="-1.7236036062"><ele>156.83</ele><time>2014-09-03T10:23:55Z</time></trkpt><trkpt lat="52.0012965146" lon="-1.7236278299"><ele>158.27</ele><time>2014-09-03T10:24:05Z</time></trkpt><trkpt lat="52.0011381805" lon="-1.7237973120"><ele>158.27</ele><time>2014-09-03T10:24:23Z</time></trkpt><trkpt lat="52.0010595582" lon="-1.7238578293"><ele>158.27</ele><time>2014-09-03T10:24:42Z</time></trkpt><trkpt lat="52.0010306407" lon="-1.7239086237"><ele>157.79</ele><time>2014-09-03T10:25:01Z</time></trkpt><trkpt lat="52.0010184031" lon="-1.7238836456"><ele>157.31</ele><time>2014-09-03T10:25:07Z</time></trkpt><trkpt lat="52.0010075066" lon="-1.7238864116"><ele>157.31</ele><time>2014-09-03T10:25:08Z</time></trkpt><trkpt lat="52.0009023137" lon="-1.7239465937"><ele>157.31</ele><time>2014-09-03T10:25:27Z</time></trkpt><trkpt lat="52.0008915011" lon="-1.7239755951"><ele>158.27</ele><time>2014-09-03T10:25:29Z</time></trkpt><trkpt lat="52.0006965380" lon="-1.7242099531"><ele>156.83</ele><time>2014-09-03T10:25:50Z</time></trkpt><trkpt lat="52.0005198475" lon="-1.7243753280"><ele>155.39</ele><time>2014-09-03T10:26:09Z</time></trkpt><trkpt lat="52.0004548877" lon="-1.7244214285"><ele>155.87</ele><time>2014-09-03T10:26:15Z</time></trkpt><trkpt lat="52.0003248006" lon="-1.7245303094"><ele>154.91</ele><time>2014-09-03T10:26:32Z</time></trkpt><trkpt lat="52.0001661312" lon="-1.7245045770"><ele>153.95</ele><time>2014-09-03T10:26:50Z</time></trkpt><trkpt lat="51.9999834895" lon="-1.7245222628"><ele>152.99</ele><time>2014-09-03T10:27:09Z</time></trkpt><trkpt lat="51.9998652209" lon="-1.7245693691"><ele>152.99</ele><time>2014-09-03T10:27:25Z</time></trkpt><trkpt lat="51.9998756144" lon="-1.7245946825"><ele>146.74</ele><time>2014-09-03T10:27:40Z</time></trkpt><trkpt lat="51.9998761173" lon="-1.7245951854"><ele>169.81</ele><time>2014-09-03T10:27:41Z</time></trkpt><trkpt lat="51.9998761173" lon="-1.7245951016"><ele>156.83</ele><time>2014-09-03T10:27:42Z</time></trkpt><trkpt lat="51.9998763688" lon="-1.7245953530"><ele>150.58</ele><time>2014-09-03T10:27:43Z</time></trkpt><trkpt lat="51.9998767879" lon="-1.7245964427"><ele>153.47</ele><time>2014-09-03T10:27:44Z</time></trkpt><trkpt lat="51.9998282567" lon="-1.7245874740"><ele>152.99</ele><time>2014-09-03T10:27:59Z</time></trkpt><trkpt lat="51.9998050388" lon="-1.7245489173"><ele>153.47</ele><time>2014-09-03T10:28:16Z</time></trkpt><trkpt lat="51.9998505525" lon="-1.7245742306"><ele>150.58</ele><time>2014-09-03T10:28:32Z</time></trkpt><trkpt lat="51.9998497143" lon="-1.7246194091"><ele>153.95</ele><time>2014-09-03T10:28:34Z</time></trkpt><trkpt lat="51.9997432642" lon="-1.7248173896"><ele>153.47</ele><time>2014-09-03T10:28:52Z</time></trkpt><trkpt lat="51.9995810743" lon="-1.7250018753"><ele>153.95</ele><time>2014-09-03T10:29:11Z</time></trkpt><trkpt lat="51.9994095806" lon="-1.7252489738"><ele>153.95</ele><time>2014-09-03T10:29:32Z</time></trkpt><trkpt lat="51.9993413519" lon="-1.7253203876"><ele>154.43</ele><time>2014-09-03T10:29:40Z</time></trkpt><trkpt lat="51.9991491549" lon="-1.7255613673"><ele>154.91</ele><time>2014-09-03T10:30:03Z</time></trkpt><trkpt lat="51.9991139509" lon="-1.7256373912"><ele>154.43</ele><time>2014-09-03T10:30:20Z</time></trkpt><trkpt lat="51.9989996217" lon="-1.7257439252"><ele>154.91</ele><time>2014-09-03T10:30:40Z</time></trkpt><trkpt lat="51.9989479054" lon="-1.7257730942"><ele>155.39</ele><time>2014-09-03T10:30:58Z</time></trkpt><trkpt lat="51.9988678582" lon="-1.7258658819"><ele>155.39</ele><time>2014-09-03T10:31:16Z</time></trkpt><trkpt lat="51.9987334963" lon="-1.7259876709"><ele>155.87</ele><time>2014-09-03T10:31:37Z</time></trkpt><trkpt lat="51.9986193348" lon="-1.7260629404"><ele>156.35</ele><time>2014-09-03T10:31:57Z</time></trkpt><trkpt lat="51.9985894114" lon="-1.7260260601"><ele>156.35</ele><time>2014-09-03T10:32:20Z</time></trkpt><trkpt lat="51.9985335879" lon="-1.7261765990"><ele>157.79</ele><time>2014-09-03T10:32:39Z</time></trkpt><trkpt lat="51.9984713942" lon="-1.7262461688"><ele>156.35</ele><time>2014-09-03T10:32:46Z</time></trkpt><trkpt lat="51.9983822107" lon="-1.7262930237"><ele>158.27</ele><time>2014-09-03T10:32:55Z</time></trkpt><trkpt lat="51.9983151555" lon="-1.7263382860"><ele>156.35</ele><time>2014-09-03T10:33:02Z</time></trkpt><trkpt lat="51.9982341025" lon="-1.7265547067"><ele>158.75</ele><time>2014-09-03T10:33:20Z</time></trkpt><trkpt lat="51.9982025027" lon="-1.7265706323"><ele>158.27</ele><time>2014-09-03T10:33:37Z</time></trkpt><trkpt lat="51.9980213698" lon="-1.7267661821"><ele>158.75</ele><time>2014-09-03T10:33:54Z</time></trkpt><trkpt lat="51.9979444239" lon="-1.7268933356"><ele>158.75</ele><time>2014-09-03T10:34:06Z</time></trkpt><trkpt lat="51.9978109002" lon="-1.7270977702"><ele>157.79</ele><time>2014-09-03T10:34:24Z</time></trkpt><trkpt lat="51.9977285061" lon="-1.7272478901"><ele>158.75</ele><time>2014-09-03T10:34:43Z</time></trkpt><trkpt lat="51.9977259077" lon="-1.7272558529"><ele>155.39</ele><time>2014-09-03T10:34:48Z</time></trkpt><trkpt lat="51.9977229740" lon="-1.7272588704"><ele>158.75</ele><time>2014-09-03T10:34:49Z</time></trkpt><trkpt lat="51.9976033643" lon="-1.7275011912"><ele>158.27</ele><time>2014-09-03T10:35:10Z</time></trkpt><trkpt lat="51.9974867720" lon="-1.7277321965"><ele>158.27</ele><time>2014-09-03T10:35:31Z</time></trkpt><trkpt lat="51.9973554276" lon="-1.7279884312"><ele>157.79</ele><time>2014-09-03T10:35:50Z</time></trkpt><trkpt lat="51.9972589519" lon="-1.7280823085"><ele>158.75</ele><time>2014-09-03T10:35:59Z</time></trkpt><trkpt lat="51.9971131906" lon="-1.7283095419"><ele>158.27</ele><time>2014-09-03T10:36:20Z</time></trkpt><trkpt lat="51.9969735481" lon="-1.7285650223"><ele>158.27</ele><time>2014-09-03T10:36:41Z</time></trkpt><trkpt lat="51.9968328997" lon="-1.7288055830"><ele>157.79</ele><time>2014-09-03T10:37:02Z</time></trkpt><trkpt lat="51.9967090990" lon="-1.7290214170"><ele>157.79</ele><time>2014-09-03T10:37:24Z</time></trkpt><trkpt lat="51.9965759944" lon="-1.7292268574"><ele>157.31</ele><time>2014-09-03T10:37:44Z</time></trkpt><trkpt lat="51.9964912534" lon="-1.7293706071"><ele>157.31</ele><time>2014-09-03T10:38:02Z</time></trkpt><trkpt lat="51.9963999745" lon="-1.7296240758"><ele>156.83</ele><time>2014-09-03T10:38:22Z</time></trkpt><trkpt lat="51.9962746650" lon="-1.7297663167"><ele>156.83</ele><time>2014-09-03T10:38:41Z</time></trkpt><trkpt lat="51.9961836375" lon="-1.7299592681"><ele>156.83</ele><time>2014-09-03T10:39:00Z</time></trkpt><trkpt lat="51.9960908499" lon="-1.7301520519"><ele>157.31</ele><time>2014-09-03T10:39:17Z</time></trkpt><trkpt lat="51.9959662110" lon="-1.7303446680"><ele>157.31</ele><time>2014-09-03T10:39:37Z</time></trkpt><trkpt lat="51.9958563242" lon="-1.7305392958"><ele>157.31</ele><time>2014-09-03T10:39:57Z</time></trkpt><trkpt lat="51.9956958108" lon="-1.7307889089"><ele>157.31</ele><time>2014-09-03T10:40:18Z</time></trkpt><trkpt lat="51.9956772029" lon="-1.7309725564"><ele>157.79</ele><time>2014-09-03T10:40:41Z</time></trkpt><trkpt lat="51.9955928810" lon="-1.7309873085"><ele>157.79</ele><time>2014-09-03T10:41:00Z</time></trkpt><trkpt lat="51.9955239818" lon="-1.7310783360"><ele>157.31</ele><time>2014-09-03T10:41:11Z</time></trkpt><trkpt lat="51.9955598563" lon="-1.7310489155"><ele>157.79</ele><time>2014-09-03T10:41:29Z</time></trkpt><trkpt lat="51.9955553301" lon="-1.7310177349"><ele>157.79</ele><time>2014-09-03T10:41:48Z</time></trkpt><trkpt lat="51.9955510553" lon="-1.7310103588"><ele>158.27</ele><time>2014-09-03T10:42:09Z</time></trkpt><trkpt lat="51.9955537375" lon="-1.7311445531"><ele>158.75</ele><time>2014-09-03T10:42:24Z</time></trkpt><trkpt lat="51.9954757858" lon="-1.7310983688"><ele>158.27</ele><time>2014-09-03T10:42:38Z</time></trkpt><trkpt lat="51.9953565951" lon="-1.7309177388"><ele>157.79</ele><time>2014-09-03T10:42:56Z</time></trkpt><trkpt lat="51.9953374844" lon="-1.7308820318"><ele>157.31</ele><time>2014-09-03T10:42:59Z</time></trkpt><trkpt lat="51.9951610453" lon="-1.7306770105"><ele>156.35</ele><time>2014-09-03T10:43:22Z</time></trkpt><trkpt lat="51.9951169565" lon="-1.7306032497"><ele>155.87</ele><time>2014-09-03T10:43:38Z</time></trkpt><trkpt lat="51.9951149449" lon="-1.7305809539"><ele>152.51</ele><time>2014-09-03T10:43:49Z</time></trkpt><trkpt lat="51.9951146934" lon="-1.7305803671"><ele>158.27</ele><time>2014-09-03T10:43:50Z</time></trkpt><trkpt lat="51.9951071497" lon="-1.7305702250"><ele>155.87</ele><time>2014-09-03T10:44:12Z</time></trkpt><trkpt lat="51.9950751308" lon="-1.7305250466"><ele>154.91</ele><time>2014-09-03T10:44:28Z</time></trkpt><trkpt lat="51.9949215744" lon="-1.7300863378"><ele>154.91</ele><time>2014-09-03T10:44:46Z</time></trkpt><trkpt lat="51.9948141184" lon="-1.7297739442"><ele>153.95</ele><time>2014-09-03T10:45:05Z</time></trkpt><trkpt lat="51.9947954267" lon="-1.7297191266"><ele>154.43</ele><time>2014-09-03T10:45:08Z</time></trkpt><trkpt lat="51.9947187323" lon="-1.7294571921"><ele>153.95</ele><time>2014-09-03T10:45:26Z</time></trkpt><trkpt lat="51.9946163055" lon="-1.7291542701"><ele>153.95</ele><time>2014-09-03T10:45:45Z</time></trkpt><trkpt lat="51.9944831170" lon="-1.7288840376"><ele>153.47</ele><time>2014-09-03T10:46:03Z</time></trkpt><trkpt lat="51.9943681173" lon="-1.7285798583"><ele>152.99</ele><time>2014-09-03T10:46:22Z</time></trkpt><trkpt lat="51.9942536205" lon="-1.7283097096"><ele>152.99</ele><time>2014-09-03T10:46:40Z</time></trkpt><trkpt lat="51.9940969627" lon="-1.7280716635"><ele>151.06</ele><time>2014-09-03T10:47:00Z</time></trkpt><trkpt lat="51.9939463399" lon="-1.7279328592"><ele>150.10</ele><time>2014-09-03T10:47:18Z</time></trkpt><trkpt lat="51.9937797915" lon="-1.7278458551"><ele>149.62</ele><time>2014-09-03T10:47:34Z</time></trkpt><trkpt lat="51.9936077110" lon="-1.7277233955"><ele>149.14</ele><time>2014-09-03T10:47:50Z</time></trkpt><trkpt lat="51.9933980796" lon="-1.7275943141"><ele>148.18</ele><time>2014-09-03T10:48:09Z</time></trkpt><trkpt lat="51.9932575990" lon="-1.7274747044"><ele>146.74</ele><time>2014-09-03T10:48:22Z</time></trkpt><trkpt lat="51.9930702634" lon="-1.7273156997"><ele>146.74</ele><time>2014-09-03T10:48:40Z</time></trkpt><trkpt lat="51.9930054713" lon="-1.7272799090"><ele>146.74</ele><time>2014-09-03T10:48:46Z</time></trkpt><trkpt lat="51.9929384999" lon="-1.7272363231"><ele>147.22</ele><time>2014-09-03T10:49:02Z</time></trkpt><trkpt lat="51.9929353148" lon="-1.7272769753"><ele>147.70</ele><time>2014-09-03T10:49:17Z</time></trkpt><trkpt lat="51.9929265138" lon="-1.7273207288"><ele>146.74</ele><time>2014-09-03T10:49:32Z</time></trkpt><trkpt lat="51.9929297827" lon="-1.7273207288"><ele>147.70</ele><time>2014-09-03T10:49:39Z</time></trkpt><trkpt lat="51.9929981790" lon="-1.7273460422"><ele>148.18</ele><time>2014-09-03T10:49:45Z</time></trkpt><trkpt lat="51.9931666553" lon="-1.7274161149"><ele>147.70</ele><time>2014-09-03T10:50:00Z</time></trkpt><trkpt lat="51.9931757078" lon="-1.7274236586"><ele>147.22</ele><time>2014-09-03T10:50:01Z</time></trkpt><trkpt lat="51.9932494685" lon="-1.7274925578"><ele>147.70</ele><time>2014-09-03T10:50:09Z</time></trkpt><trkpt lat="51.9934196211" lon="-1.7275861837"><ele>148.66</ele><time>2014-09-03T10:50:25Z</time></trkpt><trkpt lat="51.9935347885" lon="-1.7276674882"><ele>148.66</ele><time>2014-09-03T10:50:36Z</time></trkpt><trkpt lat="51.9936834835" lon="-1.7277241498"><ele>149.14</ele><time>2014-09-03T10:50:52Z</time></trkpt><trkpt lat="51.9938453380" lon="-1.7277354654"><ele>151.06</ele><time>2014-09-03T10:51:08Z</time></trkpt><trkpt lat="51.9938525464" lon="-1.7277416680"><ele>148.18</ele><time>2014-09-03T10:51:09Z</time></trkpt><trkpt lat="51.9938800391" lon="-1.7277648859"><ele>150.10</ele><time>2014-09-03T10:51:12Z</time></trkpt><trkpt lat="51.9939465076" lon="-1.7277731001"><ele>150.58</ele><time>2014-09-03T10:51:17Z</time></trkpt><trkpt lat="51.9941795245" lon="-1.7278098129"><ele>151.54</ele><time>2014-09-03T10:51:35Z</time></trkpt><trkpt lat="51.9941780157" lon="-1.7278493755"><ele>151.06</ele><time>2014-09-03T10:51:53Z</time></trkpt><trkpt lat="51.9941231143" lon="-1.7278452683"><ele>150.58</ele><time>2014-09-03T10:52:10Z</time></trkpt><trkpt lat="51.9941175822" lon="-1.7278283369"><ele>150.58</ele><time>2014-09-03T10:52:11Z</time></trkpt><trkpt lat="51.9940883294" lon="-1.7275850102"><ele>150.58</ele><time>2014-09-03T10:52:26Z</time></trkpt><trkpt lat="51.9939788617" lon="-1.7273257580"><ele>149.62</ele><time>2014-09-03T10:52:48Z</time></trkpt><trkpt lat="51.9938792009" lon="-1.7271647416"><ele>150.10</ele><time>2014-09-03T10:53:06Z</time></trkpt><trkpt lat="51.9937696494" lon="-1.7268339079"><ele>149.62</ele><time>2014-09-03T10:53:27Z</time></trkpt><trkpt lat="51.9936844055" lon="-1.7265765835"><ele>148.66</ele><time>2014-09-03T10:53:40Z</time></trkpt><trkpt lat="51.9935601018" lon="-1.7263164930"><ele>148.18</ele><time>2014-09-03T10:53:56Z</time></trkpt><trkpt lat="51.9935254008" lon="-1.7260586657"><ele>149.14</ele><time>2014-09-03T10:54:17Z</time></trkpt><trkpt lat="51.9934797194" lon="-1.7258962244"><ele>147.22</ele><time>2014-09-03T10:54:31Z</time></trkpt><trkpt lat="51.9933611155" lon="-1.7255459446"><ele>147.22</ele><time>2014-09-03T10:54:53Z</time></trkpt><trkpt lat="51.9933468662" lon="-1.7255034484"><ele>146.74</ele><time>2014-09-03T10:54:59Z</time></trkpt><trkpt lat="51.9931441918" lon="-1.7251704354"><ele>145.78</ele><time>2014-09-03T10:55:21Z</time></trkpt><trkpt lat="51.9930206425" lon="-1.7247743905"><ele>145.78</ele><time>2014-09-03T10:55:42Z</time></trkpt><trkpt lat="51.9929649867" lon="-1.7244861368"><ele>145.30</ele><time>2014-09-03T10:56:03Z</time></trkpt><trkpt lat="51.9929338060" lon="-1.7244706303"><ele>144.82</ele><time>2014-09-03T10:56:16Z</time></trkpt><trkpt lat="51.9928544294" lon="-1.7242630944"><ele>145.78</ele><time>2014-09-03T10:56:24Z</time></trkpt><trkpt lat="51.9928447902" lon="-1.7242447380"><ele>144.82</ele><time>2014-09-03T10:56:25Z</time></trkpt><trkpt lat="51.9927784055" lon="-1.7241276428"><ele>145.78</ele><time>2014-09-03T10:56:41Z</time></trkpt><trkpt lat="51.9927239232" lon="-1.7240579892"><ele>145.30</ele><time>2014-09-03T10:56:57Z</time></trkpt><trkpt lat="51.9926412776" lon="-1.7239185981"><ele>144.82</ele><time>2014-09-03T10:57:16Z</time></trkpt><trkpt lat="51.9925981946" lon="-1.7238415685"><ele>144.82</ele><time>2014-09-03T10:57:37Z</time></trkpt><trkpt lat="51.9925580453" lon="-1.7236304283"><ele>144.82</ele><time>2014-09-03T10:57:52Z</time></trkpt><trkpt lat="51.9924769923" lon="-1.7231831700"><ele>144.34</ele><time>2014-09-03T10:58:13Z</time></trkpt><trkpt lat="51.9924516790" lon="-1.7229132727"><ele>144.34</ele><time>2014-09-03T10:58:28Z</time></trkpt><trkpt lat="51.9924477395" lon="-1.7225787509"><ele>143.85</ele><time>2014-09-03T10:58:47Z</time></trkpt><trkpt lat="51.9924236834" lon="-1.7222903296"><ele>143.37</ele><time>2014-09-03T10:59:04Z</time></trkpt><trkpt lat="51.9923898205" lon="-1.7219619267"><ele>143.37</ele><time>2014-09-03T10:59:23Z</time></trkpt><trkpt lat="51.9923630822" lon="-1.7216209508"><ele>142.89</ele><time>2014-09-03T10:59:43Z</time></trkpt><trkpt lat="51.9923363440" lon="-1.7213139217"><ele>142.41</ele><time>2014-09-03T11:00:04Z</time></trkpt><trkpt lat="51.9922943506" lon="-1.7210374866"><ele>142.41</ele><time>2014-09-03T11:00:23Z</time></trkpt><trkpt lat="51.9922553748" lon="-1.7206482310"><ele>142.41</ele><time>2014-09-03T11:00:42Z</time></trkpt><trkpt lat="51.9922176562" lon="-1.7202949338"><ele>141.93</ele><time>2014-09-03T11:01:02Z</time></trkpt><trkpt lat="51.9921903312" lon="-1.7199164908"><ele>141.45</ele><time>2014-09-03T11:01:21Z</time></trkpt><trkpt lat="51.9921628386" lon="-1.7197109666"><ele>140.49</ele><time>2014-09-03T11:01:32Z</time></trkpt><trkpt lat="51.9921112061" lon="-1.7193633690"><ele>140.97</ele><time>2014-09-03T11:01:51Z</time></trkpt><trkpt lat="51.9920796063" lon="-1.7190208845"><ele>140.97</ele><time>2014-09-03T11:02:11Z</time></trkpt><trkpt lat="51.9920783490" lon="-1.7189879436"><ele>140.49</ele><time>2014-09-03T11:02:31Z</time></trkpt><trkpt lat="51.9920374453" lon="-1.7186837643"><ele>140.49</ele><time>2014-09-03T11:02:46Z</time></trkpt><trkpt lat="51.9919984695" lon="-1.7184110172"><ele>140.01</ele><time>2014-09-03T11:03:01Z</time></trkpt><trkpt lat="51.9919703901" lon="-1.7182192393"><ele>139.53</ele><time>2014-09-03T11:03:10Z</time></trkpt><trkpt lat="51.9919558056" lon="-1.7180002201"><ele>139.53</ele><time>2014-09-03T11:03:23Z</time></trkpt><trkpt lat="51.9919290673" lon="-1.7178419698"><ele>139.53</ele><time>2014-09-03T11:03:32Z</time></trkpt><trkpt lat="51.9918910135" lon="-1.7175017484"><ele>139.05</ele><time>2014-09-03T11:03:51Z</time></trkpt><trkpt lat="51.9918582402" lon="-1.7171639577"><ele>138.09</ele><time>2014-09-03T11:04:09Z</time></trkpt><trkpt lat="51.9918308314" lon="-1.7168762069"><ele>138.09</ele><time>2014-09-03T11:04:25Z</time></trkpt><trkpt lat="51.9917747565" lon="-1.7165722791"><ele>138.57</ele><time>2014-09-03T11:04:43Z</time></trkpt><trkpt lat="51.9917299971" lon="-1.7162913177"><ele>138.09</ele><time>2014-09-03T11:04:59Z</time></trkpt><trkpt lat="51.9916901831" lon="-1.7159684468"><ele>138.09</ele><time>2014-09-03T11:05:17Z</time></trkpt><trkpt lat="51.9916862436" lon="-1.7159418762"><ele>137.61</ele><time>2014-09-03T11:05:19Z</time></trkpt><trkpt lat="51.9916793704" lon="-1.7158913333"><ele>138.09</ele><time>2014-09-03T11:05:22Z</time></trkpt><trkpt lat="51.9916474354" lon="-1.7156247050"><ele>137.61</ele><time>2014-09-03T11:05:38Z</time></trkpt><trkpt lat="51.9916202780" lon="-1.7154367827"><ele>137.61</ele><time>2014-09-03T11:05:49Z</time></trkpt><trkpt lat="51.9915924501" lon="-1.7151717469"><ele>137.13</ele><time>2014-09-03T11:06:05Z</time></trkpt><trkpt lat="51.9915740937" lon="-1.7149995826"><ele>137.13</ele><time>2014-09-03T11:06:21Z</time></trkpt><trkpt lat="51.9915667176" lon="-1.7149894405"><ele>137.13</ele><time>2014-09-03T11:06:34Z</time></trkpt><trkpt lat="51.9915474392" lon="-1.7148344591"><ele>137.13</ele><time>2014-09-03T11:06:42Z</time></trkpt><trkpt lat="51.9915328547" lon="-1.7146731075"><ele>137.13</ele><time>2014-09-03T11:06:49Z</time></trkpt><trkpt lat="51.9915082119" lon="-1.7144882027"><ele>137.13</ele><time>2014-09-03T11:06:59Z</time></trkpt><trkpt lat="51.9914851617" lon="-1.7142507434"><ele>136.64</ele><time>2014-09-03T11:07:13Z</time></trkpt><trkpt lat="51.9914510474" lon="-1.7139940057"><ele>137.13</ele><time>2014-09-03T11:07:28Z</time></trkpt><trkpt lat="51.9914206211" lon="-1.7137453984"><ele>136.64</ele><time>2014-09-03T11:07:42Z</time></trkpt><trkpt lat="51.9913795497" lon="-1.7134713102"><ele>136.64</ele><time>2014-09-03T11:07:59Z</time></trkpt><trkpt lat="51.9913348742" lon="-1.7131903488"><ele>137.13</ele><time>2014-09-03T11:08:16Z</time></trkpt><trkpt lat="51.9913226366" lon="-1.7131361179"><ele>135.68</ele><time>2014-09-03T11:08:19Z</time></trkpt><trkpt lat="51.9912904501" lon="-1.7128105648"><ele>134.72</ele><time>2014-09-03T11:08:40Z</time></trkpt><trkpt lat="51.9912609458" lon="-1.7125219759"><ele>135.68</ele><time>2014-09-03T11:08:57Z</time></trkpt><trkpt lat="51.9912481215" lon="-1.7124304455"><ele>134.24</ele><time>2014-09-03T11:09:01Z</time></trkpt><trkpt lat="51.9912446011" lon="-1.7123895418"><ele>135.20</ele><time>2014-09-03T11:09:03Z</time></trkpt><trkpt lat="51.9911974110" lon="-1.7120764777"><ele>134.72</ele><time>2014-09-03T11:09:22Z</time></trkpt><trkpt lat="51.9911611173" lon="-1.7118250206"><ele>133.28</ele><time>2014-09-03T11:09:38Z</time></trkpt><trkpt lat="51.9911544118" lon="-1.7117956001"><ele>135.20</ele><time>2014-09-03T11:09:40Z</time></trkpt><trkpt lat="51.9911612011" lon="-1.7114876490"><ele>135.68</ele><time>2014-09-03T11:10:01Z</time></trkpt><trkpt lat="51.9911407493" lon="-1.7114179954"><ele>134.72</ele><time>2014-09-03T11:10:16Z</time></trkpt><trkpt lat="51.9911392406" lon="-1.7114257906"><ele>134.72</ele><time>2014-09-03T11:10:21Z</time></trkpt><trkpt lat="51.9911544956" lon="-1.7114217672"><ele>134.24</ele><time>2014-09-03T11:10:39Z</time></trkpt><trkpt lat="51.9910870213" lon="-1.7111754231"><ele>134.24</ele><time>2014-09-03T11:10:57Z</time></trkpt><trkpt lat="51.9910327066" lon="-1.7108566593"><ele>134.72</ele><time>2014-09-03T11:11:14Z</time></trkpt><trkpt lat="51.9910077285" lon="-1.7106404062"><ele>134.24</ele><time>2014-09-03T11:11:33Z</time></trkpt><trkpt lat="51.9910075609" lon="-1.7105360515"><ele>134.72</ele><time>2014-09-03T11:11:55Z</time></trkpt><trkpt lat="51.9910374004" lon="-1.7104905378"><ele>134.24</ele><time>2014-09-03T11:12:02Z</time></trkpt><trkpt lat="51.9911256619" lon="-1.7103421781"><ele>134.24</ele><time>2014-09-03T11:12:19Z</time></trkpt><trkpt lat="51.9911243208" lon="-1.7103544995"><ele>134.24</ele><time>2014-09-03T11:12:36Z</time></trkpt><trkpt lat="51.9911259972" lon="-1.7103540804"><ele>133.76</ele><time>2014-09-03T11:13:04Z</time></trkpt><trkpt lat="51.9911266677" lon="-1.7103562597"><ele>133.76</ele><time>2014-09-03T11:13:27Z</time></trkpt><trkpt lat="51.9911149330" lon="-1.7103180382"><ele>132.80</ele><time>2014-09-03T11:13:47Z</time></trkpt><trkpt lat="51.9910711795" lon="-1.7101841792"><ele>133.76</ele><time>2014-09-03T11:14:03Z</time></trkpt><trkpt lat="51.9910576846" lon="-1.7101642303"><ele>133.28</ele><time>2014-09-03T11:14:05Z</time></trkpt><trkpt lat="51.9910432678" lon="-1.7101250868"><ele>134.24</ele><time>2014-09-03T11:14:08Z</time></trkpt><trkpt lat="51.9909437746" lon="-1.7099099234"><ele>133.28</ele><time>2014-09-03T11:14:24Z</time></trkpt><trkpt lat="51.9907802437" lon="-1.7096665967"><ele>132.80</ele><time>2014-09-03T11:14:42Z</time></trkpt><trkpt lat="51.9906803314" lon="-1.7093761638"><ele>134.24</ele><time>2014-09-03T11:15:00Z</time></trkpt><trkpt lat="51.9905928243" lon="-1.7091022432"><ele>133.28</ele><time>2014-09-03T11:15:18Z</time></trkpt><trkpt lat="51.9905302115" lon="-1.7089254688"><ele>132.32</ele><time>2014-09-03T11:15:29Z</time></trkpt><trkpt lat="51.9904963486" lon="-1.7087449227"><ele>132.80</ele><time>2014-09-03T11:15:42Z</time></trkpt><trkpt lat="51.9904913194" lon="-1.7084947228"><ele>132.80</ele><time>2014-09-03T11:15:58Z</time></trkpt><trkpt lat="51.9904888887" lon="-1.7081992608"><ele>133.28</ele><time>2014-09-03T11:16:15Z</time></trkpt><trkpt lat="51.9904986955" lon="-1.7078764737"><ele>132.32</ele><time>2014-09-03T11:16:34Z</time></trkpt><trkpt lat="51.9904987793" lon="-1.7075170577"><ele>132.80</ele><time>2014-09-03T11:16:55Z</time></trkpt><trkpt lat="51.9905221649" lon="-1.7071857210"><ele>131.84</ele><time>2014-09-03T11:17:15Z</time></trkpt><trkpt lat="51.9905101787" lon="-1.7068670411"><ele>132.32</ele><time>2014-09-03T11:17:34Z</time></trkpt><trkpt lat="51.9905126095" lon="-1.7065248080"><ele>131.36</ele><time>2014-09-03T11:17:56Z</time></trkpt><trkpt lat="51.9905010425" lon="-1.7063992471"><ele>131.36</ele><time>2014-09-03T11:18:14Z</time></trkpt><trkpt lat="51.9904857874" lon="-1.7062341236"><ele>131.84</ele><time>2014-09-03T11:18:31Z</time></trkpt><trkpt lat="51.9904931635" lon="-1.7062149290"><ele>131.84</ele><time>2014-09-03T11:18:49Z</time></trkpt><trkpt lat="51.9904707000" lon="-1.7060187086"><ele>131.84</ele><time>2014-09-03T11:19:10Z</time></trkpt><trkpt lat="51.9904596359" lon="-1.7059517372"><ele>131.84</ele><time>2014-09-03T11:19:31Z</time></trkpt><trkpt lat="51.9904339872" lon="-1.7058221530"><ele>131.36</ele><time>2014-09-03T11:19:52Z</time></trkpt><trkpt lat="51.9903962687" lon="-1.7056190595"><ele>131.84</ele><time>2014-09-03T11:20:11Z</time></trkpt><trkpt lat="51.9903772417" lon="-1.7053185683"><ele>131.84</ele><time>2014-09-03T11:20:30Z</time></trkpt><trkpt lat="51.9903840311" lon="-1.7050757445"><ele>131.84</ele><time>2014-09-03T11:20:48Z</time></trkpt><trkpt lat="51.9903481565" lon="-1.7049280554"><ele>130.88</ele><time>2014-09-03T11:21:07Z</time></trkpt><trkpt lat="51.9903377630" lon="-1.7049250379"><ele>130.88</ele><time>2014-09-03T11:21:25Z</time></trkpt><trkpt lat="51.9903479889" lon="-1.7047365289"><ele>131.36</ele><time>2014-09-03T11:21:49Z</time></trkpt><trkpt lat="51.9903639145" lon="-1.7044478562"><ele>130.88</ele><time>2014-09-03T11:22:06Z</time></trkpt><trkpt lat="51.9903868809" lon="-1.7040723469"><ele>131.36</ele><time>2014-09-03T11:22:26Z</time></trkpt><trkpt lat="51.9904115237" lon="-1.7037339695"><ele>130.88</ele><time>2014-09-03T11:22:47Z</time></trkpt><trkpt lat="51.9903866295" lon="-1.7035649903"><ele>130.88</ele><time>2014-09-03T11:23:06Z</time></trkpt><trkpt lat="51.9903066661" lon="-1.7035467178"><ele>130.40</ele><time>2014-09-03T11:23:15Z</time></trkpt><trkpt lat="51.9900814444" lon="-1.7034105957"><ele>130.88</ele><time>2014-09-03T11:23:30Z</time></trkpt><trkpt lat="51.9899397064" lon="-1.7034094222"><ele>130.88</ele><time>2014-09-03T11:23:52Z</time></trkpt><trkpt lat="51.9899585657" lon="-1.7034038901"><ele>130.40</ele><time>2014-09-03T11:24:23Z</time></trkpt></trkseg><trkseg><trkpt lat="51.9898704719" lon="-1.7037416808"><ele>130.88</ele><time>2014-09-03T11:24:38Z</time></trkpt><trkpt lat="51.9896727428" lon="-1.7037358135"><ele>130.88</ele><time>2014-09-03T11:25:02Z</time></trkpt><trkpt lat="51.9897044264" lon="-1.7038259190"><ele>128.95</ele><time>2014-09-03T11:25:19Z</time></trkpt><trkpt lat="51.9897091202" lon="-1.7038303614"><ele>130.88</ele><time>2014-09-03T11:25:20Z</time></trkpt></trkseg><trkseg><trkpt lat="51.9895083737" lon="-1.7036940716"><ele>129.92</ele><time>2014-09-03T11:26:04Z</time></trkpt><trkpt lat="51.9895020034" lon="-1.7036790680"><ele>130.40</ele><time>2014-09-03T11:26:05Z</time></trkpt><trkpt lat="51.9894090481" lon="-1.7037997674"><ele>130.40</ele><time>2014-09-03T11:26:26Z</time></trkpt><trkpt lat="51.9893128239" lon="-1.7038961593"><ele>130.40</ele><time>2014-09-03T11:26:35Z</time></trkpt><trkpt lat="51.9890856743" lon="-1.7036996037"><ele>130.88</ele><time>2014-09-03T11:26:51Z</time></trkpt><trkpt lat="51.9888612907" lon="-1.7036906350"><ele>130.40</ele><time>2014-09-03T11:27:10Z</time></trkpt><trkpt lat="51.9888016954" lon="-1.7038296070"><ele>130.40</ele><time>2014-09-03T11:27:24Z</time></trkpt><trkpt lat="51.9886766374" lon="-1.7039320339"><ele>130.40</ele><time>2014-09-03T11:27:39Z</time></trkpt><trkpt lat="51.9884501584" lon="-1.7039283458"><ele>130.40</ele><time>2014-09-03T11:27:55Z</time></trkpt><trkpt lat="51.9880951848" lon="-1.7037152778"><ele>129.92</ele><time>2014-09-03T11:28:12Z</time></trkpt><trkpt lat="51.9879929256" lon="-1.7038575187"><ele>129.92</ele><time>2014-09-03T11:28:25Z</time></trkpt><trkpt lat="51.9879446458" lon="-1.7038959078"><ele>129.92</ele><time>2014-09-03T11:28:31Z</time></trkpt><trkpt lat="51.9879183266" lon="-1.7038872745"><ele>130.40</ele><time>2014-09-03T11:28:33Z</time></trkpt><trkpt lat="51.9878462423" lon="-1.7038622964"><ele>129.43</ele><time>2014-09-03T11:28:39Z</time></trkpt><trkpt lat="51.9875969645" lon="-1.7038695049"><ele>129.92</ele><time>2014-09-03T11:29:00Z</time></trkpt><trkpt lat="51.9873695634" lon="-1.7039038707"><ele>129.43</ele><time>2014-09-03T11:29:17Z</time></trkpt><trkpt lat="51.9871785399" lon="-1.7039227299"><ele>129.92</ele><time>2014-09-03T11:29:35Z</time></trkpt><trkpt lat="51.9870422501" lon="-1.7040770408"><ele>130.40</ele><time>2014-09-03T11:29:56Z</time></trkpt><trkpt lat="51.9869685732" lon="-1.7043003347"><ele>130.40</ele><time>2014-09-03T11:30:09Z</time></trkpt><trkpt lat="51.9869519770" lon="-1.7043525539"><ele>130.40</ele><time>2014-09-03T11:30:20Z</time></trkpt><trkpt lat="51.9869540725" lon="-1.7043405678"><ele>130.88</ele><time>2014-09-03T11:30:39Z</time></trkpt><trkpt lat="51.9869531505" lon="-1.7043423280"><ele>130.88</ele><time>2014-09-03T11:30:42Z</time></trkpt></trkseg></trk></gpx>